Time;durP1;ratioP1;P1;durP2;ratioP2;P2;SDS_P1;SDS_P2;PMS_P1;PMS_P2;Temp;Humidity;BMP_temperature;BMP_pressure;BME280_temperature;BME280_humidity;BME280_pressure;Samples;Min_cycle;Max_cycle;Signal;HPM_P1;HPM_P2
2022/03/25 00:02:57;;;;;;;15.80;12.77;;;10.80;37.10;;;;;;6229938;28;20472;-62
2022/03/25 00:06:01;;;;;;;18.80;12.47;;;10.70;37.10;;;;;;6212102;28;20472;-62
2022/03/25 00:09:05;;;;;;;12.33;11.03;;;10.70;37.20;;;;;;6229861;28;21242;-62
2022/03/25 00:12:09;;;;;;;17.33;13.00;;;10.70;37.50;;;;;;6229057;28;20511;-62
2022/03/25 00:15:13;;;;;;;17.67;14.80;;;10.70;38.10;;;;;;6226556;28;20491;-65
2022/03/25 00:18:19;;;;;;;17.83;14.47;;;10.60;37.40;;;;;;6215387;28;20500;-63
2022/03/25 00:21:23;;;;;;;17.40;15.07;;;10.50;38.00;;;;;;6205235;28;20486;-63
2022/03/25 00:24:27;;;;;;;19.40;14.00;;;10.50;37.70;;;;;;6205703;28;20560;-61
2022/03/25 00:27:31;;;;;;;13.60;12.20;;;10.50;39.60;;;;;;6222887;28;20448;-61
2022/03/25 00:30:35;;;;;;;12.77;11.30;;;10.50;40.30;;;;;;6190613;28;20445;-62
2022/03/25 00:33:42;;;;;;;14.80;12.63;;;10.50;40.30;;;;;;6192924;28;20480;-62
2022/03/25 00:36:46;;;;;;;14.40;12.87;;;10.50;39.80;;;;;;6189277;28;20895;-62
2022/03/25 00:39:50;;;;;;;12.97;11.57;;;10.40;40.10;;;;;;6189316;28;20492;-61
2022/03/25 00:42:54;;;;;;;13.37;10.50;;;10.30;40.30;;;;;;6191059;28;20477;-61
2022/03/25 00:45:58;;;;;;;14.90;11.10;;;10.30;40.00;;;;;;6188199;28;20477;-61
2022/03/25 00:49:04;;;;;;;12.50;11.20;;;10.20;40.10;;;;;;6188629;28;20946;-61
2022/03/25 00:52:08;;;;;;;12.83;10.97;;;10.20;40.40;;;;;;6178460;28;21009;-61
2022/03/25 00:55:12;;;;;;;13.27;11.70;;;10.20;40.20;;;;;;6178071;28;20989;-61
2022/03/25 00:58:16;;;;;;;11.77;10.27;;;10.20;40.20;;;;;;6182500;28;20501;-61
2022/03/25 01:01:19;;;;;;;12.03;10.83;;;10.20;40.50;;;;;;6203028;28;20872;-61
2022/03/25 01:04:25;;;;;;;12.13;10.77;;;10.20;39.40;;;;;;6203657;28;20501;-61
2022/03/25 01:07:29;;;;;;;11.20;10.00;;;10.10;40.20;;;;;;6205045;28;20477;-61
2022/03/25 01:10:34;;;;;;;13.87;11.10;;;10.10;40.20;;;;;;6206005;28;20480;-61
2022/03/25 01:13:38;;;;;;;13.77;11.10;;;10.10;40.50;;;;;;6205041;28;20564;-61
2022/03/25 01:16:42;;;;;;;13.63;10.83;;;10.00;40.20;;;;;;6202749;28;20998;-61
2022/03/25 01:19:47;;;;;;;11.53;10.20;;;9.90;41.40;;;;;;6205505;28;20804;-61
2022/03/25 01:22:51;;;;;;;13.37;10.30;;;9.90;41.40;;;;;;6191625;28;20485;-61
2022/03/25 01:25:55;;;;;;;13.63;10.47;;;9.90;41.40;;;;;;6204516;28;20500;-61
2022/03/25 01:29:00;;;;;;;10.77;9.67;;;9.80;41.40;;;;;;6203568;28;20527;-61
2022/03/25 01:32:06;;;;;;;12.27;9.73;;;9.80;41.40;;;;;;6205055;28;20543;-61
2022/03/25 01:35:12;;;;;;;12.37;10.00;;;9.70;41.40;;;;;;6204251;28;20476;-61
2022/03/25 01:38:15;;;;;;;12.00;10.67;;;9.70;41.90;;;;;;6202052;28;20659;-61
2022/03/25 01:41:19;;;;;;;12.83;10.80;;;9.60;41.90;;;;;;6200292;28;20508;-61
2022/03/25 01:44:26;;;;;;;10.90;8.97;;;9.50;41.90;;;;;;6199755;28;20481;-61
2022/03/25 01:47:30;;;;;;;10.60;9.13;;;9.40;41.90;;;;;;6200205;28;20473;-61
2022/03/25 01:50:35;;;;;;;11.90;9.40;;;9.40;41.80;;;;;;6200028;28;20480;-61
2022/03/25 01:53:38;;;;;;;10.40;9.37;;;9.40;42.00;;;;;;6199696;28;20481;-61
2022/03/25 01:56:41;;;;;;;11.97;10.00;;;9.40;42.20;;;;;;6199898;28;20477;-62
2022/03/25 01:59:44;;;;;;;14.10;9.83;;;9.30;42.30;;;;;;6199491;28;20492;-62
2022/03/25 02:02:48;;;;;;;10.13;9.03;;;9.30;42.20;;;;;;6199378;28;20485;-62
2022/03/25 02:05:53;;;;;;;12.30;9.93;;;9.20;42.60;;;;;;6199187;28;20488;-62
2022/03/25 02:08:56;;;;;;;13.80;10.10;;;9.20;42.50;;;;;;6199868;28;20485;-62
2022/03/25 02:12:00;;;;;;;10.00;8.80;;;9.20;42.90;;;;;;6199936;28;20477;-62
2022/03/25 02:15:05;;;;;;;10.07;8.67;;;9.20;42.80;;;;;;6199500;28;20480;-61
2022/03/25 02:18:10;;;;;;;12.37;8.77;;;9.20;42.90;;;;;;6199372;28;20973;-61
2022/03/25 02:21:15;;;;;;;11.07;9.53;;;9.10;42.90;;;;;;6199144;28;20484;-61
2022/03/25 02:24:19;;;;;;;12.70;9.77;;;9.10;43.00;;;;;;6199066;28;20551;-61
2022/03/25 02:27:24;;;;;;;10.10;9.10;;;9.10;43.00;;;;;;6190063;28;20488;-61
2022/03/25 02:30:28;;;;;;;14.93;9.77;;;9.00;43.00;;;;;;6199107;28;20468;-61
2022/03/25 02:33:31;;;;;;;10.10;9.10;;;9.00;43.00;;;;;;6199924;28;20499;-61
2022/03/25 02:36:37;;;;;;;12.73;9.43;;;9.00;43.30;;;;;;6199350;28;20908;-61
2022/03/25 02:39:41;;;;;;;11.40;9.70;;;9.00;43.40;;;;;;6199895;28;20481;-61
2022/03/25 02:42:44;;;;;;;9.37;8.37;;;9.00;43.30;;;;;;6199571;28;20461;-61
2022/03/25 02:45:47;;;;;;;10.63;9.53;;;9.00;43.60;;;;;;6198947;28;20480;-62
2022/03/25 02:48:50;;;;;;;10.13;9.13;;;9.00;43.40;;;;;;6199955;28;20480;-62
2022/03/25 02:51:53;;;;;;;13.30;8.93;;;8.90;43.70;;;;;;6199439;28;20489;-62
2022/03/25 02:54:58;;;;;;;12.70;9.67;;;8.90;43.80;;;;;;6199423;28;20465;-62
2022/03/25 02:58:01;;;;;;;13.03;9.93;;;8.80;43.80;;;;;;6196487;28;20968;-62
2022/03/25 03:01:06;;;;;;;10.80;9.70;;;8.70;44.10;;;;;;6196756;28;20977;-62
2022/03/25 03:04:09;;;;;;;14.50;11.20;;;8.70;44.10;;;;;;6199422;28;20484;-62
2022/03/25 03:07:12;;;;;;;13.93;10.60;;;8.60;44.30;;;;;;6199177;28;20488;-62
2022/03/25 03:10:17;;;;;;;11.30;9.73;;;8.60;44.30;;;;;;6199232;28;20542;-62
2022/03/25 03:13:21;;;;;;;12.30;10.33;;;8.50;44.60;;;;;;6199250;28;20492;-62
2022/03/25 03:16:24;;;;;;;11.27;10.13;;;8.50;44.50;;;;;;6199167;28;20512;-62
2022/03/25 03:19:27;;;;;;;13.60;11.37;;;8.40;44.70;;;;;;6203188;28;20969;-62
2022/03/25 03:22:30;;;;;;;16.93;13.83;;;8.40;45.00;;;;;;6203012;28;20497;-62
2022/03/25 03:25:35;;;;;;;17.10;13.70;;;8.30;45.30;;;;;;6203079;28;20498;-61
2022/03/25 03:28:38;;;;;;;15.20;13.60;;;8.20;45.30;;;;;;6202681;28;20469;-61
2022/03/25 03:31:41;;;;;;;17.67;11.40;;;8.20;45.40;;;;;;6202648;28;20985;-62
2022/03/25 03:34:45;;;;;;;16.37;12.60;;;8.20;45.30;;;;;;6202927;28;20483;-61
2022/03/25 03:37:48;;;;;;;14.30;10.77;;;8.10;45.20;;;;;;6202872;28;20485;-61
2022/03/25 03:40:52;;;;;;;18.93;11.70;;;8.10;45.20;;;;;;6203207;28;20561;-61
2022/03/25 03:43:55;;;;;;;11.13;9.50;;;8.20;45.30;;;;;;6202911;28;20476;-61
2022/03/25 03:46:59;;;;;;;11.63;10.43;;;8.10;45.90;;;;;;6202578;28;20981;-61
2022/03/25 03:50:03;;;;;;;16.40;10.57;;;8.10;45.20;;;;;;6202763;28;20468;-61
2022/03/25 03:53:06;;;;;;;10.90;9.70;;;8.00;45.60;;;;;;6202622;28;20484;-61
2022/03/25 03:56:11;;;;;;;13.60;11.70;;;8.00;45.60;;;;;;6202595;28;20507;-61
2022/03/25 03:59:14;;;;;;;14.40;10.60;;;8.00;45.80;;;;;;6196554;28;20548;-61
2022/03/25 04:02:18;;;;;;;12.60;10.80;;;7.90;45.70;;;;;;6202263;28;20619;-61
2022/03/25 04:05:21;;;;;;;16.17;10.27;;;7.90;45.90;;;;;;6202236;28;20503;-61
2022/03/25 04:08:24;;;;;;;14.90;11.73;;;7.90;46.00;;;;;;6202374;28;20481;-61
2022/03/25 04:11:29;;;;;;;11.67;9.90;;;7.80;45.70;;;;;;6202014;28;20481;-61
2022/03/25 04:14:32;;;;;;;12.37;11.00;;;7.80;46.00;;;;;;6202253;28;20481;-61
2022/03/25 04:17:35;;;;;;;11.83;10.07;;;7.80;46.00;;;;;;6202202;28;20480;-61
2022/03/25 04:20:38;;;;;;;14.07;10.50;;;7.80;46.00;;;;;;6202324;28;20500;-61
2022/03/25 04:23:41;;;;;;;15.40;11.27;;;7.70;46.00;;;;;;6201960;28;20489;-61
2022/03/25 04:26:45;;;;;;;15.53;11.93;;;7.70;46.00;;;;;;6201582;28;20485;-61
2022/03/25 04:29:48;;;;;;;15.93;12.37;;;7.70;46.40;;;;;;6200843;28;20975;-61
2022/03/25 04:32:52;;;;;;;14.27;11.97;;;7.70;46.40;;;;;;6201702;28;20480;-61
2022/03/25 04:35:55;;;;;;;12.53;11.10;;;7.60;46.60;;;;;;6197781;28;20492;-61
2022/03/25 04:38:58;;;;;;;13.70;11.70;;;7.60;46.60;;;;;;6201662;28;20985;-61
2022/03/25 04:42:03;;;;;;;16.77;11.43;;;7.60;46.80;;;;;;6201764;28;20472;-61
2022/03/25 04:45:07;;;;;;;13.40;10.87;;;7.50;46.50;;;;;;6201205;28;20481;-61
2022/03/25 04:48:11;;;;;;;14.33;12.60;;;7.50;46.70;;;;;;6201290;28;20556;-62
2022/03/25 04:51:14;;;;;;;14.80;12.53;;;7.50;46.60;;;;;;6200636;28;20490;-62
2022/03/25 04:54:18;;;;;;;14.20;11.27;;;7.50;47.00;;;;;;6200927;28;20481;-61
2022/03/25 04:57:22;;;;;;;15.57;12.90;;;7.50;47.20;;;;;;6201467;28;20472;-61
2022/03/25 05:00:26;;;;;;;17.00;13.13;;;7.50;47.10;;;;;;6195686;28;20991;-61
2022/03/25 05:03:29;;;;;;;15.63;11.90;;;7.40;47.30;;;;;;6200834;28;20471;-61
2022/03/25 05:06:33;;;;;;;14.00;12.33;;;7.40;47.10;;;;;;6201277;28;20445;-61
2022/03/25 05:09:36;;;;;;;21.87;14.13;;;7.30;47.10;;;;;;6211023;28;20528;-61
2022/03/25 05:12:42;;;;;;;18.10;13.83;;;7.40;47.00;;;;;;6204706;28;20468;-61
2022/03/25 05:15:46;;;;;;;21.57;11.87;;;7.40;47.20;;;;;;6204559;28;20425;-60
2022/03/25 05:18:51;;;;;;;16.13;11.90;;;7.40;47.20;;;;;;6203859;28;20544;-60
2022/03/25 05:21:55;;;;;;;15.70;12.60;;;7.40;47.20;;;;;;6203419;28;20499;-60
2022/03/25 05:24:59;;;;;;;21.30;13.20;;;7.40;47.20;;;;;;6205017;28;20823;-61
2022/03/25 05:28:05;;;;;;;18.90;14.53;;;7.40;47.30;;;;;;6207647;28;20848;-61
2022/03/25 05:31:08;;;;;;;15.80;13.37;;;7.50;47.30;;;;;;6204227;28;20814;-62
2022/03/25 05:34:12;;;;;;;14.77;12.83;;;7.50;47.40;;;;;;6202795;28;20504;-62
2022/03/25 05:37:16;;;;;;;17.00;14.80;;;7.50;47.20;;;;;;6194373;28;20983;-62
2022/03/25 05:40:21;;;;;;;17.40;14.63;;;7.50;47.40;;;;;;6202018;28;20492;-62
2022/03/25 05:43:26;;;;;;;17.00;13.63;;;7.50;47.40;;;;;;6202288;28;20481;-62
2022/03/25 05:46:29;;;;;;;21.00;13.73;;;7.50;47.50;;;;;;6202060;28;20539;-61
2022/03/25 05:49:32;;;;;;;20.03;14.13;;;7.60;47.20;;;;;;6202252;28;20481;-61
2022/03/25 05:52:36;;;;;;;17.80;13.53;;;7.80;47.20;;;;;;6201667;28;20581;-61
2022/03/25 05:55:39;;;;;;;18.67;14.90;;;7.80;47.10;;;;;;6202070;28;20473;-61
2022/03/25 05:58:43;;;;;;;19.27;14.20;;;7.90;46.90;;;;;;6196651;28;20477;-61
2022/03/25 06:01:48;;;;;;;18.50;14.40;;;7.90;47.40;;;;;;6201864;28;20470;-61
2022/03/25 06:04:52;;;;;;;18.30;13.90;;;8.00;46.70;;;;;;6201490;28;20465;-61
2022/03/25 06:07:55;;;;;;;18.37;13.30;;;8.10;46.40;;;;;;6201322;28;20560;-62
2022/03/25 06:10:59;;;;;;;20.50;14.60;;;8.20;46.20;;;;;;6199400;28;20762;-62
2022/03/25 06:14:03;;;;;;;19.33;15.47;;;8.20;45.80;;;;;;6200615;28;20852;-62
2022/03/25 06:17:06;;;;;;;18.00;15.18;;;8.30;45.60;;;;;;6199826;28;20904;-63
2022/03/25 06:20:12;;;;;;;18.03;14.73;;;8.40;45.50;;;;;;6201232;28;20242;-62
2022/03/25 06:23:15;;;;;;;17.30;14.30;;;8.60;45.20;;;;;;6200365;28;20485;-63
2022/03/25 06:26:18;;;;;;;14.73;12.07;;;8.70;44.90;;;;;;6200983;28;20477;-63
2022/03/25 06:29:23;;;;;;;18.50;13.00;;;8.80;44.60;;;;;;6200735;28;20826;-63
2022/03/25 06:32:26;;;;;;;14.40;12.50;;;8.90;44.40;;;;;;6200509;28;20941;-61
2022/03/25 06:35:30;;;;;;;19.20;12.00;;;9.10;44.90;;;;;;6200936;28;20975;-61
2022/03/25 06:38:33;;;;;;;14.90;12.83;;;9.30;44.10;;;;;;6200213;28;20484;-61
2022/03/25 06:41:36;;;;;;;16.70;13.30;;;9.60;43.60;;;;;;6184816;28;20477;-62
2022/03/25 06:44:40;;;;;;;15.10;12.40;;;10.00;42.40;;;;;;6195297;28;20482;-62
2022/03/25 06:47:44;;;;;;;12.90;10.80;;;11.10;41.80;;;;;;6188910;28;20548;-62
2022/03/25 06:50:48;;;;;;;18.50;12.30;;;12.90;39.20;;;;;;6195519;28;20480;-62
2022/03/25 06:53:51;;;;;;;11.97;10.70;;;14.80;36.30;;;;;;6190044;28;20481;-62
2022/03/25 06:56:55;;;;;;;15.63;11.00;;;16.60;33.00;;;;;;6183122;28;20970;-64
2022/03/25 07:00:01;;;;;;;15.60;11.10;;;18.10;30.80;;;;;;6199181;28;20480;-63
2022/03/25 07:03:04;;;;;;;13.63;10.70;;;19.30;28.80;;;;;;6187912;28;20470;-62
2022/03/25 07:06:10;;;;;;;14.10;10.43;;;19.70;28.00;;;;;;6194885;28;20496;-63
2022/03/25 07:09:13;;;;;;;12.80;10.13;;;20.60;27.20;;;;;;6194995;28;20222;-63
2022/03/25 07:12:17;;;;;;;16.00;10.77;;;21.80;26.40;;;;;;6199729;28;20542;-64
2022/03/25 07:15:23;;;;;;;11.97;10.63;;;23.10;25.50;;;;;;6206798;28;20230;-64
2022/03/25 07:18:26;;;;;;;11.60;10.27;;;23.90;24.10;;;;;;6200961;28;20231;-62
2022/03/25 07:21:29;;;;;;;13.53;10.10;;;24.90;23.10;;;;;;6180857;28;20230;-65
2022/03/25 07:24:32;;;;;;;15.07;11.30;;;25.60;22.20;;;;;;6204258;28;20248;-65
2022/03/25 07:27:35;;;;;;;12.93;10.50;;;26.20;21.60;;;;;;6204784;28;20217;-64
2022/03/25 07:30:41;;;;;;;16.20;11.40;;;27.10;21.20;;;;;;6204818;28;20220;-65
2022/03/25 07:33:44;;;;;;;12.50;10.90;;;28.10;20.30;;;;;;6204271;28;20248;-64
2022/03/25 07:36:51;;;;;;;13.17;11.90;;;28.90;19.40;;;;;;6204392;28;20243;-66
2022/03/25 07:39:54;;;;;;;13.93;12.13;;;29.60;18.50;;;;;;6204160;28;20225;-64
2022/03/25 07:42:58;;;;;;;15.70;13.00;;;30.30;18.10;;;;;;6204555;28;20295;-64
2022/03/25 07:46:02;;;;;;;12.53;11.23;;;30.90;18.20;;;;;;6200119;28;20613;-64
2022/03/25 07:49:06;;;;;;;15.30;13.13;;;31.60;17.20;;;;;;6204840;28;20231;-63
2022/03/25 07:52:10;;;;;;;13.60;12.20;;;32.10;16.60;;;;;;6204003;28;20571;-63
2022/03/25 07:55:15;;;;;;;16.92;13.82;;;32.70;16.20;;;;;;6203709;28;20229;-63
2022/03/25 07:58:20;;;;;;;13.90;12.45;;;33.20;15.90;;;;;;6208366;28;20240;-64
2022/03/25 08:01:24;;;;;;;15.07;13.43;;;33.70;15.60;;;;;;6203417;28;20552;-65
2022/03/25 08:04:27;;;;;;;13.15;11.85;;;34.30;15.20;;;;;;6202692;28;20261;-65
2022/03/25 08:07:30;;;;;;;14.93;13.40;;;34.70;14.90;;;;;;6222884;28;20251;-67
2022/03/25 08:10:34;;;;;;;16.80;14.50;;;35.20;14.30;;;;;;6227287;28;20688;-66
2022/03/25 08:13:37;;;;;;;15.43;13.93;;;35.60;13.90;;;;;;6228182;28;20228;-66
2022/03/25 08:16:44;;;;;;;16.23;14.70;;;36.30;13.80;;;;;;6227221;28;20228;-64
2022/03/25 08:19:47;;;;;;;16.30;14.60;;;37.20;13.30;;;;;;6210333;28;20239;-65
2022/03/25 08:22:50;;;;;;;15.75;14.15;;;38.00;12.80;;;;;;6202604;28;20260;-66
2022/03/25 08:29:16;;;;;;;17.50;15.68;;;38.80;12.80;;;;;;6202619;28;20233;-66
2022/03/25 08:32:22;;;;;;;16.63;15.02;;;39.00;12.00;;;;;;6202501;28;20566;-64
2022/03/25 08:35:26;;;;;;;19.30;17.35;;;39.20;11.90;;;;;;6202592;28;20590;-64
2022/03/25 08:38:29;;;;;;;21.95;19.77;;;39.50;11.40;;;;;;6202653;28;20275;-65
2022/03/25 08:41:32;;;;;;;20.42;18.65;;;39.60;11.00;;;;;;6201732;28;20232;-65
2022/03/25 08:44:35;;;;;;;22.45;20.58;;;40.00;10.80;;;;;;6201805;28;20229;-64
2022/03/25 08:47:40;;;;;;;21.77;19.95;;;40.20;10.40;;;;;;6202718;28;20357;-67
2022/03/25 08:50:43;;;;;;;20.02;18.17;;;40.70;10.40;;;;;;6189221;28;20693;-65
2022/03/25 08:53:46;;;;;;;22.13;20.02;;;41.50;10.30;;;;;;6200539;28;20233;-64
2022/03/25 08:56:49;;;;;;;23.88;21.98;;;42.00;10.20;;;;;;6201965;28;20225;-66
2022/03/25 08:59:52;;;;;;;24.10;21.92;;;42.40;9.80;;;;;;6196531;28;20225;-65
2022/03/25 09:02:57;;;;;;;25.02;22.77;;;42.20;9.70;;;;;;6201599;28;20241;-65
2022/03/25 09:06:00;;;;;;;25.45;22.95;;;42.60;9.60;;;;;;6201857;28;20250;-65
2022/03/25 09:09:09;;;;;;;26.58;24.25;;;43.10;10.20;;;;;;6201903;28;20232;-65
2022/03/25 09:12:12;;;;;;;24.58;22.55;;;43.60;9.30;;;;;;6201514;28;20233;-67
2022/03/25 09:15:16;;;;;;;30.45;27.65;;;44.20;9.20;;;;;;6201516;28;20577;-66
2022/03/25 09:18:20;;;;;;;27.77;25.35;;;43.70;8.70;;;;;;6201645;28;20254;-65
2022/03/25 09:21:23;;;;;;;26.08;23.70;;;44.20;9.10;;;;;;6201461;28;20247;-65
2022/03/25 09:24:27;;;;;;;27.10;24.77;;;45.00;9.00;;;;;;6201325;28;20581;-66
2022/03/25 09:27:30;;;;;;;29.48;26.45;;;45.50;8.60;;;;;;6201179;28;20229;-65
2022/03/25 09:30:33;;;;;;;29.80;27.42;;;46.10;8.40;;;;;;6201781;28;20225;-67
2022/03/25 09:33:39;;;;;;;27.73;25.67;;;46.10;8.30;;;;;;6201838;28;20236;-66
2022/03/25 09:36:43;;;;;;;29.63;27.20;;;46.30;8.10;;;;;;6201559;28;20240;-65
2022/03/25 09:39:46;;;;;;;27.80;25.25;;;46.80;7.90;;;;;;6201379;28;20220;-65
2022/03/25 09:42:51;;;;;;;30.38;27.88;;;46.30;8.00;;;;;;6200700;28;20236;-65
2022/03/25 09:45:56;;;;;;;26.13;24.23;;;46.70;7.70;;;;;;6201010;28;20235;-65
2022/03/25 09:49:00;;;;;;;27.88;25.33;;;46.30;7.80;;;;;;6201117;28;20375;-67
2022/03/25 09:52:04;;;;;;;31.38;28.52;;;46.10;7.90;;;;;;6200749;28;20226;-65
2022/03/25 09:55:09;;;;;;;30.63;28.02;;;46.70;7.80;;;;;;6200933;28;20305;-64
2022/03/25 09:58:18;;;;;;;27.70;25.40;;;47.70;7.60;;;;;;6200887;28;20234;-64
2022/03/25 10:01:21;;;;;;;28.67;26.33;;;47.20;7.50;;;;;;6188143;28;20699;-64
2022/03/25 10:04:43;;;;;;;28.52;26.25;;;47.00;7.40;;;;;;6200592;28;20308;-63
2022/03/25 10:07:48;;;;;;;30.00;27.60;;;47.50;7.40;;;;;;6198602;28;20245;-65
2022/03/25 10:10:51;;;;;;;29.58;27.17;;;47.60;7.40;;;;;;6200232;28;20224;-65
2022/03/25 10:14:14;;;;;;;24.27;22.48;;;47.60;7.40;;;;;;6200112;28;20244;-66
2022/03/25 10:17:18;;;;;;;23.70;22.00;;;48.10;6.60;;;;;;6200925;28;20229;-65
2022/03/25 10:20:25;;;;;;;27.00;25.00;;;47.80;6.70;;;;;;6186490;28;20233;-66
2022/03/25 10:23:29;;;;;;;28.25;25.75;;;46.40;6.90;;;;;;6183705;28;20233;-65
2022/03/25 10:26:37;;;;;;;26.02;24.08;;;45.60;7.30;;;;;;6191121;28;20237;-66
2022/03/25 10:29:44;;;;;;;28.13;25.60;;;44.30;7.70;;;;;;6205674;28;20233;-67
2022/03/25 10:32:48;;;;;;;27.77;25.42;;;43.20;8.00;;;;;;6209412;28;20677;-65
2022/03/25 10:36:07;;;;;;;29.45;27.00;;;42.30;8.40;;;;;;6207334;28;20241;-65
2022/03/25 10:39:16;;;;;;;26.65;24.25;;;40.90;8.70;;;;;;6206387;28;20252;-67
2022/03/25 10:42:19;;;;;;;27.38;24.75;;;39.40;9.10;;;;;;6212314;28;20241;-66
2022/03/25 10:45:28;;;;;;;28.15;25.85;;;37.90;9.40;;;;;;6214113;28;20279;-67
2022/03/25 10:48:31;;;;;;;27.67;25.17;;;36.30;10.10;;;;;;6213344;28;20240;-67
2022/03/25 10:51:38;;;;;;;28.77;25.95;;;35.00;10.60;;;;;;6214168;28;20212;-67
2022/03/25 10:54:41;;;;;;;28.95;26.33;;;33.90;11.30;;;;;;6208005;28;20197;-66
2022/03/25 10:57:52;;;;;;;26.55;24.15;;;33.00;12.00;;;;;;6212316;28;20213;-65
2022/03/25 11:00:55;;;;;;;27.52;25.00;;;32.30;12.30;;;;;;6213361;28;20229;-65
2022/03/25 11:03:59;;;;;;;27.60;25.10;;;31.80;12.40;;;;;;6204436;28;20741;-66
2022/03/25 11:07:04;;;;;;;29.80;27.05;;;31.20;12.90;;;;;;6204950;28;20234;-65
2022/03/25 11:10:08;;;;;;;29.25;26.30;;;30.90;13.10;;;;;;6205043;28;20237;-67
2022/03/25 11:13:11;;;;;;;26.15;23.65;;;30.80;13.30;;;;;;6207289;28;20229;-65
2022/03/25 11:16:16;;;;;;;26.23;23.77;;;30.30;13.40;;;;;;6206832;28;20232;-65
2022/03/25 11:19:21;;;;;;;28.67;26.15;;;29.40;13.80;;;;;;6206061;28;20256;-65
2022/03/25 11:22:27;;;;;;;28.48;25.67;;;29.30;14.20;;;;;;6205127;28;20256;-66
2022/03/25 11:25:31;;;;;;;28.05;25.42;;;29.40;14.30;;;;;;6202744;28;20799;-65
2022/03/25 11:28:36;;;;;;;30.20;27.60;;;29.40;14.30;;;;;;6206466;28;20233;-67
2022/03/25 11:32:04;;;;;;;29.53;26.90;;;29.40;14.40;;;;;;6206470;28;20237;-65
2022/03/25 11:35:19;;;;;;;30.30;27.10;;;29.30;14.60;;;;;;6185892;28;20233;-65
2022/03/25 11:38:24;;;;;;;28.40;25.77;;;29.10;14.50;;;;;;6195039;28;20590;-66
2022/03/25 11:41:28;;;;;;;29.70;26.87;;;28.60;15.20;;;;;;6199315;28;20236;-68
2022/03/25 11:44:31;;;;;;;28.83;26.13;;;28.50;15.00;;;;;;6198071;28;20238;-67
2022/03/25 11:47:34;;;;;;;29.27;26.13;;;28.30;14.90;;;;;;6188744;28;20288;-68
2022/03/25 11:50:39;;;;;;;30.83;27.90;;;28.20;15.30;;;;;;6184011;28;20269;-64
2022/03/25 11:53:44;;;;;;;28.23;25.77;;;28.40;14.90;;;;;;6183909;28;20854;-65
2022/03/25 11:56:49;;;;;;;29.00;26.20;;;28.60;14.90;;;;;;6204970;28;20229;-66
2022/03/25 11:59:54;;;;;;;29.60;26.50;;;28.60;14.60;;;;;;6209012;28;20225;-67
2022/03/25 12:03:01;;;;;;;27.93;25.20;;;28.40;14.80;;;;;;6186407;28;20234;-66
2022/03/25 12:06:05;;;;;;;26.43;23.93;;;28.20;15.00;;;;;;6184689;28;20240;-66
2022/03/25 12:09:18;;;;;;;25.40;23.10;;;28.10;15.20;;;;;;6204565;28;20240;-67
2022/03/25 12:12:55;;;;;;;28.90;26.10;;;28.30;14.90;;;;;;6203869;28;20256;-64
2022/03/25 12:15:58;;;;;;;27.30;24.80;;;27.50;15.10;;;;;;6206535;28;20229;-66
2022/03/25 12:19:02;;;;;;;27.90;25.40;;;27.20;15.40;;;;;;6206818;28;20225;-64
2022/03/25 12:22:27;;;;;;;28.10;25.37;;;27.70;15.70;;;;;;6204095;28;20225;-63
2022/03/25 12:25:31;;;;;;;26.57;23.77;;;28.00;15.20;;;;;;6203077;28;20284;-65
2022/03/25 12:28:35;;;;;;;26.60;24.20;;;28.10;15.20;;;;;;6203150;28;20235;-63
2022/03/25 12:31:38;;;;;;;26.30;23.97;;;28.30;15.20;;;;;;6202889;28;20332;-65
2022/03/25 12:34:50;;;;;;;28.97;26.30;;;28.10;15.20;;;;;;6202933;28;20231;-64
2022/03/25 12:38:17;;;;;;;28.30;25.63;;;27.80;15.60;;;;;;6202218;28;20236;-64
2022/03/25 12:41:27;;;;;;;27.97;25.00;;;27.50;15.70;;;;;;6203295;28;20230;-64
2022/03/25 12:44:56;;;;;;;27.17;24.53;;;27.50;15.70;;;;;;6202897;28;20252;-64
2022/03/25 12:48:09;;;;;;;26.17;23.70;;;27.60;15.70;;;;;;6202269;28;20229;-64
2022/03/25 12:51:13;;;;;;;27.13;24.53;;;27.50;15.40;;;;;;6202453;28;20240;-65
2022/03/25 12:54:17;;;;;;;27.17;24.63;;;27.40;15.60;;;;;;6202100;28;20244;-63
2022/03/25 12:57:33;;;;;;;27.60;24.70;;;27.60;16.30;;;;;;6202813;28;20244;-63
2022/03/25 13:00:39;;;;;;;26.27;23.23;;;28.00;15.50;;;;;;6189741;28;20233;-63
2022/03/25 13:03:44;;;;;;;27.63;24.93;;;27.90;15.30;;;;;;6192373;28;20229;-64
2022/03/25 13:06:47;;;;;;;26.10;23.50;;;27.90;15.40;;;;;;6202293;28;20202;-64
2022/03/25 13:09:54;;;;;;;24.80;22.40;;;27.40;15.60;;;;;;6202588;28;20213;-65
2022/03/25 13:13:01;;;;;;;24.57;22.17;;;26.80;15.70;;;;;;6202100;28;20236;-62
2022/03/25 13:16:06;;;;;;;26.13;23.77;;;26.40;16.20;;;;;;6201883;28;20225;-63
2022/03/25 13:19:09;;;;;;;26.40;23.77;;;26.30;16.10;;;;;;6203766;28;20239;-62
2022/03/25 13:22:19;;;;;;;25.10;22.70;;;26.50;16.10;;;;;;6204926;28;20746;-64
2022/03/25 13:25:32;;;;;;;26.23;23.50;;;26.60;16.00;;;;;;6201963;28;20568;-63
2022/03/25 13:28:38;;;;;;;25.63;23.27;;;26.70;15.90;;;;;;6200962;28;20729;-66
2022/03/25 13:31:50;;;;;;;24.10;21.80;;;26.80;15.70;;;;;;6199957;28;20225;-65
2022/03/25 13:35:05;;;;;;;25.17;22.63;;;26.50;16.10;;;;;;6200331;28;20229;-65
2022/03/25 13:38:12;;;;;;;24.00;21.80;;;26.30;16.60;;;;;;6199683;28;20249;-64
2022/03/25 13:41:17;;;;;;;26.10;23.40;;;25.00;17.20;;;;;;6199977;28;20237;-65
2022/03/25 13:44:25;;;;;;;24.60;22.03;;;24.60;17.70;;;;;;6201241;28;20229;-64
2022/03/25 13:47:29;;;;;;;24.40;22.10;;;24.60;17.50;;;;;;6201530;28;20248;-63
2022/03/25 13:50:33;;;;;;;24.47;21.90;;;24.20;17.70;;;;;;6201086;28;20708;-63
2022/03/25 13:53:39;;;;;;;25.57;22.97;;;24.20;17.90;;;;;;6200954;28;20560;-63
2022/03/25 13:56:44;;;;;;;25.33;22.90;;;24.00;18.00;;;;;;6201082;28;20566;-64
2022/03/25 13:59:48;;;;;;;25.60;23.00;;;23.80;18.60;;;;;;6201336;28;20230;-65
2022/03/25 14:02:51;;;;;;;24.97;22.50;;;23.60;18.60;;;;;;6201652;28;20648;-64
2022/03/25 14:05:55;;;;;;;27.30;24.57;;;23.50;18.40;;;;;;6198633;28;20242;-63
2022/03/25 14:08:58;;;;;;;26.87;24.20;;;23.50;18.70;;;;;;6189583;28;20237;-62
2022/03/25 14:12:03;;;;;;;23.47;21.03;;;23.10;19.10;;;;;;6198704;28;20260;-62
2022/03/25 14:15:09;;;;;;;25.47;22.90;;;22.90;19.30;;;;;;6199018;28;20230;-62
2022/03/25 14:18:21;;;;;;;25.97;23.17;;;22.80;19.00;;;;;;6198710;28;20538;-62
2022/03/25 14:21:31;;;;;;;25.53;23.03;;;22.60;19.10;;;;;;6200789;28;20253;-63
2022/03/25 14:24:37;;;;;;;24.33;21.97;;;22.40;19.40;;;;;;6200398;28;20238;-62
2022/03/25 14:27:42;;;;;;;23.53;21.30;;;22.40;19.60;;;;;;6200606;28;20611;-62
2022/03/25 14:30:47;;;;;;;24.73;22.23;;;22.50;20.20;;;;;;6200415;28;20221;-63
2022/03/25 14:33:50;;;;;;;23.20;20.80;;;22.50;19.80;;;;;;6200272;28;20313;-62
2022/03/25 14:36:55;;;;;;;25.77;22.60;;;22.30;19.80;;;;;;6199499;28;20308;-62
2022/03/25 14:39:58;;;;;;;26.73;21.83;;;22.10;19.90;;;;;;6200141;28;20225;-62
2022/03/25 14:43:01;;;;;;;26.03;21.30;;;22.00;19.90;;;;;;6200453;28;20230;-62
2022/03/25 14:46:06;;;;;;;23.37;20.97;;;21.70;19.90;;;;;;6200377;28;20310;-63
2022/03/25 14:49:10;;;;;;;23.83;21.23;;;21.70;20.10;;;;;;6189399;28;20245;-63
2022/03/25 14:52:13;;;;;;;23.70;21.30;;;21.70;20.10;;;;;;6191325;28;20237;-63
2022/03/25 14:55:19;;;;;;;25.97;23.43;;;21.70;20.10;;;;;;6188002;28;20735;-64
2022/03/25 14:58:23;;;;;;;24.57;21.97;;;21.70;20.00;;;;;;6197988;28;20257;-62
2022/03/25 15:01:27;;;;;;;24.40;21.67;;;21.50;20.50;;;;;;6194033;28;20238;-62
2022/03/25 15:04:31;;;;;;;24.37;21.47;;;21.40;20.50;;;;;;6182822;28;20586;-62
2022/03/25 15:07:34;;;;;;;23.20;20.87;;;21.30;20.60;;;;;;6185319;28;20712;-63
2022/03/25 15:10:38;;;;;;;22.30;19.90;;;21.20;20.80;;;;;;6195600;28;20700;-62
2022/03/25 15:13:42;;;;;;;24.77;21.87;;;21.00;20.80;;;;;;6203535;28;20234;-62
2022/03/25 15:16:47;;;;;;;22.60;20.20;;;20.90;20.90;;;;;;6205232;28;20245;-62
2022/03/25 15:19:50;;;;;;;23.83;21.30;;;20.90;20.90;;;;;;6204745;28;20233;-62
2022/03/25 15:22:53;;;;;;;24.43;19.60;;;20.90;20.80;;;;;;6198337;28;20246;-62
2022/03/25 15:25:57;;;;;;;23.27;20.87;;;21.00;20.90;;;;;;6198128;28;20248;-62
2022/03/25 15:29:01;;;;;;;23.80;21.20;;;21.10;20.90;;;;;;6183421;28;20670;-62
2022/03/25 15:35:27;;;;;;;24.03;21.63;;;20.90;21.20;;;;;;6197050;28;20226;-63
2022/03/25 15:38:38;;;;;;;24.87;20.63;;;20.80;21.30;;;;;;6195050;28;20226;-62
2022/03/25 15:41:41;;;;;;;25.40;22.70;;;20.70;21.50;;;;;;6203567;28;20234;-65
2022/03/25 15:44:44;;;;;;;24.40;21.47;;;20.40;21.60;;;;;;6207023;28;20234;-65
2022/03/25 15:47:49;;;;;;;22.60;20.13;;;20.50;21.60;;;;;;6206301;28;20230;-65
2022/03/25 15:50:52;;;;;;;30.03;20.53;;;20.50;21.70;;;;;;6205110;28;20230;-66
2022/03/25 15:53:55;;;;;;;22.20;19.83;;;20.50;21.50;;;;;;6204006;28;20249;-65